createdAt,value
2023-03-30T00:01:02.223Z,3.65
2023-03-30T00:03:29.323Z,4.32
2023-03-30T00:05:56.680Z,3.92
2023-03-30T00:08:28.254Z,3.92
2023-03-30T00:11:03.839Z,3.65
2023-03-30T00:13:31.713Z,4.30
2023-03-30T00:15:58.742Z,3.92
2023-03-30T00:18:26.370Z,4.35
2023-03-30T00:20:53.052Z,4.45
2023-03-30T00:23:19.852Z,4.53
2023-03-30T00:25:47.855Z,5.40
2023-03-30T00:28:14.607Z,5.45
2023-03-30T00:30:41.725Z,6.00
2023-03-30T00:33:08.360Z,5.43
2023-03-30T00:35:36.324Z,5.63
2023-03-30T00:38:03.267Z,4.90
2023-03-30T00:40:31.464Z,4.70
2023-03-30T00:43:02.249Z,4.50
2023-03-30T00:45:32.546Z,4.53
2023-03-30T00:48:07.024Z,4.60
2023-03-30T00:50:35.306Z,4.18
2023-03-30T00:53:09.942Z,4.57
2023-03-30T00:55:38.898Z,3.65
2023-03-30T00:58:07.216Z,4.03
2023-03-30T01:00:34.224Z,3.90
2023-03-30T01:03:05.484Z,3.30
2023-03-30T01:05:32.220Z,3.10
2023-03-30T01:07:59.216Z,3.45
2023-03-30T01:10:25.977Z,3.15
2023-03-30T01:12:52.840Z,3.47
2023-03-30T01:15:20.440Z,2.63
2023-03-30T01:18:30.482Z,2.92
2023-03-30T01:21:34.296Z,3.03
2023-03-30T01:24:43.012Z,2.65
2023-03-30T01:27:24.646Z,3.28
2023-03-30T01:30:14.116Z,3.15
2023-03-30T01:32:58.637Z,2.90
2023-03-30T01:35:47.873Z,3.05
2023-03-30T01:38:31.477Z,3.03
2023-03-30T01:41:20.038Z,3.00
2023-03-30T01:43:58.609Z,2.63
2023-03-30T01:46:30.845Z,2.80
2023-03-30T01:49:08.488Z,2.70
2023-03-30T01:51:44.598Z,2.75
2023-03-30T01:54:26.057Z,2.85
2023-03-30T01:59:34.789Z,2.30
2023-03-30T02:02:04.221Z,2.85
2023-03-30T02:04:34.228Z,2.60
2023-03-30T02:07:04.197Z,2.15
2023-03-30T02:09:32.547Z,2.40
2023-03-30T02:12:01.092Z,2.33
2023-03-30T02:14:31.104Z,2.60
2023-03-30T02:17:02.312Z,2.80
2023-03-30T02:19:30.077Z,2.65
2023-03-30T02:21:56.578Z,2.88
2023-03-30T02:24:26.060Z,2.20
2023-03-30T02:26:54.338Z,2.70
2023-03-30T02:29:22.891Z,2.38
2023-03-30T02:31:51.025Z,2.35
2023-03-30T02:34:49.737Z,2.22
2023-03-30T02:37:22.161Z,2.80
2023-03-30T02:40:08.890Z,2.78
2023-03-30T02:43:06.258Z,2.20
2023-03-30T02:45:44.629Z,2.40
2023-03-30T02:48:36.049Z,2.42
2023-03-30T02:51:21.566Z,2.35
2023-03-30T02:54:45.416Z,2.25
2023-03-30T02:57:34.142Z,2.42
2023-03-30T03:00:26.754Z,2.75
2023-03-30T03:02:58.979Z,2.37
2023-03-30T03:05:28.830Z,1.90
2023-03-30T03:08:09.356Z,2.47
2023-03-30T03:10:37.282Z,2.38
2023-03-30T03:13:05.117Z,2.42
2023-03-30T03:15:32.296Z,2.05
2023-03-30T03:18:08.524Z,2.50
2023-03-30T03:20:36.059Z,2.22
2023-03-30T03:23:03.173Z,2.20
2023-03-30T03:25:36.984Z,2.47
2023-03-30T03:28:04.855Z,2.63
2023-03-30T03:30:40.499Z,2.22
2023-03-30T03:33:12.098Z,2.58
2023-03-30T03:35:40.787Z,2.63
2023-03-30T03:38:09.171Z,2.85
2023-03-30T03:40:36.392Z,2.25
2023-03-30T03:43:03.007Z,3.53
2023-03-30T03:45:29.655Z,2.40
2023-03-30T03:47:59.008Z,2.17
2023-03-30T03:50:40.034Z,2.97
2023-03-30T03:53:07.048Z,2.10
2023-03-30T03:55:35.249Z,2.13
2023-03-30T03:58:06.014Z,2.17
2023-03-30T04:00:33.716Z,11.10
2023-03-30T04:03:00.400Z,2.45
2023-03-30T04:05:27.087Z,2.72
2023-03-30T04:07:56.605Z,2.47
2023-03-30T04:10:24.005Z,19.58
2023-03-30T04:13:14.775Z,2.25
2023-03-30T04:15:59.917Z,104.53
2023-03-30T04:18:35.296Z,2.88
2023-03-30T04:21:20.178Z,2.28
2023-03-30T04:23:55.122Z,119.50
2023-03-30T04:26:48.677Z,131.43
2023-03-30T04:29:34.680Z,134.70
2023-03-30T04:32:20.881Z,129.05
2023-03-30T04:34:55.711Z,144.98
2023-03-30T04:37:30.268Z,135.55
2023-03-30T04:40:16.854Z,175.05
2023-03-30T04:43:22.629Z,126.38
2023-03-30T04:46:05.004Z,130.82
2023-03-30T04:48:46.289Z,304.00
2023-03-30T04:51:44.907Z,193.60
2023-03-30T04:54:34.685Z,145.02
2023-03-30T04:57:20.503Z,146.02
2023-03-30T05:00:17.413Z,187.85
2023-03-30T05:03:04.924Z,128.90
2023-03-30T05:06:07.444Z,138.05
2023-03-30T05:09:04.015Z,130.63
2023-03-30T05:11:49.397Z,128.23
2023-03-30T05:17:06.373Z,135.90
2023-03-30T05:19:50.446Z,127.50
2023-03-30T05:22:45.116Z,131.40
2023-03-30T05:25:48.790Z,129.43
2023-03-30T05:28:34.337Z,143.35
2023-03-30T05:31:17.170Z,139.35
2023-03-30T05:34:11.886Z,132.75
2023-03-30T05:36:54.046Z,126.97
2023-03-30T05:39:39.586Z,138.50
2023-03-30T05:42:41.317Z,130.60
2023-03-30T05:45:23.921Z,133.38
2023-03-30T05:48:06.713Z,156.00
2023-03-30T05:50:33.252Z,126.57
2023-03-30T05:53:04.942Z,148.10
2023-03-30T05:55:56.914Z,154.13
2023-03-30T05:58:29.464Z,127.05
2023-03-30T06:01:13.310Z,153.82
2023-03-30T06:03:42.197Z,127.88
2023-03-30T06:06:10.362Z,126.97
2023-03-30T06:08:38.388Z,149.13
2023-03-30T06:11:07.853Z,162.60
2023-03-30T06:13:44.503Z,135.65
2023-03-30T06:16:11.740Z,163.32
2023-03-30T06:18:38.722Z,138.13
2023-03-30T06:21:08.917Z,157.30
2023-03-30T06:24:07.901Z,163.10
2023-03-30T06:26:37.766Z,132.48
2023-03-30T06:29:04.466Z,159.02
2023-03-30T06:31:31.454Z,136.80
2023-03-30T06:34:24.030Z,136.35
2023-03-30T06:36:52.222Z,141.48
2023-03-30T06:39:21.836Z,144.45
2023-03-30T06:41:49.956Z,131.85
2023-03-30T06:44:32.485Z,129.15
2023-03-30T06:47:05.957Z,161.77
2023-03-30T06:49:33.103Z,137.50
2023-03-30T06:52:17.329Z,147.85
2023-03-30T06:54:44.550Z,136.43
2023-03-30T06:57:11.313Z,162.50
2023-03-30T06:59:37.955Z,134.98
2023-03-30T07:02:25.726Z,142.20
2023-03-30T07:05:28.575Z,135.32
2023-03-30T07:08:07.718Z,165.10
2023-03-30T07:10:36.241Z,140.65
2023-03-30T07:13:07.337Z,173.80
2023-03-30T07:15:34.670Z,143.82
2023-03-30T07:18:01.369Z,159.38
2023-03-30T07:20:28.097Z,148.95
2023-03-30T07:23:08.089Z,173.82
2023-03-30T07:25:35.972Z,147.77
2023-03-30T07:28:10.745Z,175.35
2023-03-30T07:30:37.498Z,142.07
2023-03-30T07:33:06.219Z,147.13
2023-03-30T07:35:33.025Z,162.20
2023-03-30T07:38:04.127Z,160.30
2023-03-30T07:40:36.371Z,168.82
2023-03-30T07:43:05.439Z,135.88
2023-03-30T07:45:32.077Z,137.07
2023-03-30T07:47:58.800Z,154.48
2023-03-30T07:50:25.796Z,136.85
2023-03-30T07:52:55.900Z,189.30
2023-03-30T07:55:24.846Z,162.95
2023-03-30T07:57:59.363Z,175.68
2023-03-30T08:00:26.277Z,252.05
2023-03-30T08:03:11.881Z,176.55
2023-03-30T08:05:38.689Z,162.52
2023-03-30T08:08:17.913Z,178.20
2023-03-30T08:10:44.720Z,164.20
2023-03-30T08:13:13.004Z,165.55
2023-03-30T08:15:39.769Z,188.57
2023-03-30T08:18:08.596Z,175.10
2023-03-30T08:20:37.212Z,205.05
2023-03-30T08:23:05.040Z,168.57
2023-03-30T08:25:32.254Z,210.75
2023-03-30T08:27:59.026Z,178.80
2023-03-30T08:30:25.740Z,210.10
2023-03-30T08:32:56.062Z,182.52
2023-03-30T08:35:23.951Z,199.60
2023-03-30T08:37:51.011Z,222.20
2023-03-30T08:40:19.603Z,291.65
2023-03-30T08:43:04.957Z,256.27
2023-03-30T08:45:37.227Z,284.23
2023-03-30T08:48:08.199Z,289.75
2023-03-30T08:50:36.382Z,285.30
2023-03-30T08:53:05.120Z,257.73
2023-03-30T08:55:47.314Z,290.50
2023-03-30T08:58:54.145Z,246.95
2023-03-30T09:01:34.761Z,261.02
2023-03-30T09:04:30.834Z,227.48
2023-03-30T09:07:02.220Z,230.77
2023-03-30T09:09:30.307Z,236.82
2023-03-30T09:12:02.994Z,214.98
2023-03-30T09:14:36.295Z,230.60
2023-03-30T09:17:15.222Z,201.50
2023-03-30T09:19:52.184Z,180.05
2023-03-30T09:22:19.596Z,200.50
2023-03-30T09:24:46.645Z,166.30
2023-03-30T09:27:25.227Z,189.88
2023-03-30T09:29:54.562Z,159.43
2023-03-30T09:32:40.608Z,246.57
2023-03-30T09:35:16.066Z,214.68
2023-03-30T09:37:43.365Z,170.65
2023-03-30T09:40:31.051Z,227.55
2023-03-30T09:43:08.803Z,169.68
2023-03-30T09:45:36.036Z,178.50
2023-03-30T09:48:06.731Z,189.38
2023-03-30T09:50:40.988Z,182.45
2023-03-30T09:53:25.049Z,160.07
2023-03-30T09:56:11.174Z,160.38
2023-03-30T09:58:38.137Z,153.93
2023-03-30T10:01:18.508Z,219.45
2023-03-30T10:03:47.085Z,151.17
2023-03-30T10:06:19.439Z,201.35
2023-03-30T10:08:49.056Z,156.25
2023-03-30T10:11:43.027Z,182.50
2023-03-30T10:14:22.123Z,158.93
2023-03-30T10:16:52.422Z,155.35
2023-03-30T10:19:20.971Z,142.37
2023-03-30T10:21:48.094Z,158.40
2023-03-30T10:24:14.579Z,168.65
2023-03-30T10:26:46.433Z,144.52
2023-03-30T10:29:16.176Z,157.18
2023-03-30T10:31:46.073Z,149.40
2023-03-30T10:34:35.735Z,179.88
2023-03-30T10:37:06.952Z,175.23
2023-03-30T10:39:34.510Z,186.00
2023-03-30T10:42:03.250Z,195.95
2023-03-30T10:44:36.365Z,234.57
2023-03-30T10:47:37.722Z,232.18
2023-03-30T10:50:16.556Z,228.40
2023-03-30T10:53:14.311Z,255.98
2023-03-30T10:55:53.840Z,284.08
2023-03-30T10:58:32.040Z,363.75
2023-03-30T11:01:06.292Z,312.10
2023-03-30T11:03:33.997Z,276.02
2023-03-30T11:06:07.111Z,2.58
2023-03-30T11:08:40.005Z,2.72
2023-03-30T11:11:07.573Z,1.77
2023-03-30T11:13:37.377Z,2.33
2023-03-30T11:16:18.450Z,2.28
2023-03-30T11:18:53.681Z,238.63
2023-03-30T11:21:50.104Z,346.08
2023-03-30T11:24:24.375Z,2.58
2023-03-30T11:26:59.815Z,2.20
2023-03-30T11:29:49.437Z,1.90
2023-03-30T11:32:25.088Z,1.90
2023-03-30T11:35:38.218Z,2.00
2023-03-30T11:38:24.787Z,2.10
2023-03-30T11:41:15.180Z,1.88
2023-03-30T11:43:41.939Z,2.25
2023-03-30T11:46:30.104Z,2.08
2023-03-30T11:49:34.157Z,14.88
2023-03-30T11:52:22.230Z,2.53
2023-03-30T11:55:28.188Z,3.03
2023-03-30T11:58:14.633Z,2.47
2023-03-30T12:00:59.342Z,3.92
2023-03-30T12:03:39.104Z,3.03
2023-03-30T12:06:18.304Z,3.88
2023-03-30T12:09:02.370Z,2.92
2023-03-30T12:11:50.724Z,3.78
2023-03-30T12:14:45.703Z,3.22
2023-03-30T12:17:18.505Z,3.72
2023-03-30T12:19:56.654Z,3.70
2023-03-30T12:22:50.163Z,3.25
2023-03-30T12:25:39.305Z,2.80
2023-03-30T12:28:16.802Z,2.75
2023-03-30T12:30:55.110Z,3.30
2023-03-30T12:33:36.263Z,2.65
2023-03-30T12:36:05.331Z,2.80
2023-03-30T12:38:38.250Z,2.65
2023-03-30T12:41:14.410Z,3.60
2023-03-30T12:43:48.241Z,3.13
2023-03-30T12:46:26.260Z,3.03
2023-03-30T12:49:08.171Z,3.58
2023-03-30T12:51:49.665Z,2.95
2023-03-30T12:57:03.239Z,3.20
2023-03-30T12:59:49.297Z,3.97
2023-03-30T13:02:43.575Z,2.80
2023-03-30T13:05:19.548Z,2.65
2023-03-30T13:07:46.180Z,3.08
2023-03-30T13:10:30.949Z,2.38
2023-03-30T13:12:59.603Z,2.38
2023-03-30T13:15:40.527Z,2.20
2023-03-30T13:18:10.014Z,1.98
2023-03-30T13:20:56.507Z,1.77
2023-03-30T13:23:23.160Z,2.20
2023-03-30T13:26:06.038Z,2.75
2023-03-30T13:28:57.342Z,193.65
2023-03-30T13:31:34.720Z,18.15
2023-03-30T13:34:26.151Z,237.93
2023-03-30T13:37:05.614Z,270.65
2023-03-30T13:39:42.556Z,292.65
2023-03-30T13:42:45.792Z,253.90
2023-03-30T13:45:21.797Z,300.42
2023-03-30T13:47:57.451Z,268.20
2023-03-30T13:50:28.510Z,273.65
2023-03-30T13:52:57.938Z,260.90
2023-03-30T13:55:33.111Z,354.92
2023-03-30T13:58:03.908Z,274.48
2023-03-30T14:00:50.967Z,252.63
2023-03-30T14:03:32.851Z,241.32
2023-03-30T14:06:20.824Z,273.13
2023-03-30T14:08:49.838Z,283.23
2023-03-30T14:11:35.777Z,225.90
2023-03-30T14:14:03.637Z,225.73
2023-03-30T14:16:36.703Z,196.75
2023-03-30T14:19:21.397Z,199.50
2023-03-30T14:21:48.188Z,304.60
2023-03-30T14:24:18.180Z,223.45
2023-03-30T14:26:47.221Z,231.80
2023-03-30T14:29:24.641Z,239.38
2023-03-30T14:32:08.040Z,204.65
2023-03-30T14:34:36.586Z,204.23
2023-03-30T14:37:07.645Z,201.88
2023-03-30T14:39:42.485Z,203.10
2023-03-30T14:42:33.907Z,194.98
2023-03-30T14:45:01.529Z,194.07
2023-03-30T14:47:28.739Z,279.23
2023-03-30T14:49:58.205Z,212.23
2023-03-30T14:52:32.681Z,219.85
2023-03-30T14:55:07.396Z,195.98
2023-03-30T14:57:37.906Z,358.85
2023-03-30T15:00:20.425Z,204.82
2023-03-30T15:02:52.490Z,216.43
2023-03-30T15:05:20.867Z,221.43
2023-03-30T15:07:51.004Z,180.27
2023-03-30T15:10:23.379Z,203.13
2023-03-30T15:12:52.505Z,266.15
2023-03-30T15:15:21.394Z,186.55
2023-03-30T15:17:49.716Z,166.20
2023-03-30T15:20:17.622Z,176.00
2023-03-30T15:22:49.198Z,157.32
2023-03-30T15:25:18.790Z,160.15
2023-03-30T15:28:07.347Z,135.75
2023-03-30T15:30:38.035Z,142.80
2023-03-30T15:33:07.256Z,129.18
2023-03-30T15:35:35.625Z,143.63
2023-03-30T15:38:10.959Z,127.18
2023-03-30T15:40:42.373Z,151.85
2023-03-30T15:43:22.735Z,124.35
2023-03-30T15:45:57.567Z,165.68
2023-03-30T15:48:33.517Z,122.68
2023-03-30T15:51:11.565Z,124.68
2023-03-30T15:53:43.100Z,154.02
2023-03-30T15:56:18.002Z,127.63
2023-03-30T15:58:44.782Z,164.10
2023-03-30T16:01:14.610Z,184.45
2023-03-30T16:03:50.145Z,127.88
2023-03-30T16:06:17.685Z,147.43
2023-03-30T16:08:45.135Z,127.15
2023-03-30T16:11:14.955Z,171.35
2023-03-30T16:13:46.505Z,141.02
2023-03-30T16:18:42.740Z,136.88
2023-03-30T16:21:10.809Z,122.40
2023-03-30T16:23:37.771Z,133.50
2023-03-30T16:26:05.313Z,120.45
2023-03-30T16:28:31.905Z,123.28
2023-03-30T16:31:01.712Z,161.60
2023-03-30T16:33:28.261Z,121.57
2023-03-30T16:35:54.922Z,205.93
2023-03-30T16:38:21.521Z,117.53
2023-03-30T16:40:52.689Z,196.32
2023-03-30T16:43:19.239Z,119.25
2023-03-30T16:45:46.367Z,265.05
2023-03-30T16:48:14.930Z,120.50
2023-03-30T16:50:43.810Z,133.23
2023-03-30T16:53:10.997Z,116.25
2023-03-30T16:55:38.710Z,126.22
2023-03-30T16:58:06.619Z,115.68
2023-03-30T17:00:46.296Z,118.75
2023-03-30T17:03:13.792Z,113.63
2023-03-30T17:05:40.747Z,125.53
2023-03-30T17:08:16.530Z,116.28
2023-03-30T17:10:43.122Z,130.32
2023-03-30T17:13:09.695Z,115.25
2023-03-30T17:15:38.629Z,113.10
2023-03-30T17:18:08.928Z,180.07
2023-03-30T17:20:42.962Z,117.68
2023-03-30T17:23:10.473Z,211.25
2023-03-30T17:25:39.794Z,117.15
2023-03-30T17:28:10.059Z,136.45
2023-03-30T17:30:40.109Z,113.88
2023-03-30T17:33:12.757Z,259.05
2023-03-30T17:35:39.970Z,111.30
2023-03-30T17:38:08.852Z,138.75
2023-03-30T17:40:39.638Z,110.78
2023-03-30T17:43:07.095Z,134.73
2023-03-30T17:45:35.059Z,108.97
2023-03-30T17:48:02.098Z,124.60
2023-03-30T17:50:34.920Z,111.07
2023-03-30T17:53:02.067Z,120.53
2023-03-30T17:55:31.833Z,110.88
2023-03-30T17:57:58.714Z,118.28
2023-03-30T18:00:32.641Z,107.13
2023-03-30T18:03:01.256Z,116.75
2023-03-30T18:05:29.658Z,108.97
2023-03-30T18:07:56.403Z,116.97
2023-03-30T18:10:28.417Z,134.70
2023-03-30T18:12:55.539Z,115.93
2023-03-30T18:15:25.525Z,117.63
2023-03-30T18:17:52.639Z,112.10
2023-03-30T18:20:26.732Z,143.43
2023-03-30T18:22:53.446Z,109.60
2023-03-30T18:25:31.366Z,143.85
2023-03-30T18:27:59.430Z,117.93
2023-03-30T18:30:34.194Z,112.57
2023-03-30T18:33:00.707Z,130.90
2023-03-30T18:35:29.298Z,106.57
2023-03-30T18:37:56.361Z,137.20
2023-03-30T18:40:32.936Z,111.72
2023-03-30T18:43:00.208Z,132.50
2023-03-30T18:45:28.783Z,109.47
2023-03-30T18:47:56.620Z,138.65
2023-03-30T18:50:36.204Z,111.25
2023-03-30T18:53:05.987Z,125.28
2023-03-30T18:55:34.966Z,112.28
2023-03-30T18:58:02.485Z,132.55
2023-03-30T19:00:31.829Z,122.45
2023-03-30T19:02:59.001Z,141.80
2023-03-30T19:05:27.361Z,124.50
2023-03-30T19:07:54.314Z,111.55
2023-03-30T19:10:23.250Z,161.18
2023-03-30T19:12:53.300Z,111.80
2023-03-30T19:15:25.329Z,154.77
2023-03-30T19:17:52.458Z,114.93
2023-03-30T19:20:24.620Z,150.90
2023-03-30T19:22:51.395Z,114.07
2023-03-30T19:25:19.346Z,151.68
2023-03-30T19:27:59.519Z,139.18
2023-03-30T19:30:29.814Z,132.13
2023-03-30T19:32:58.911Z,115.03
2023-03-30T19:35:25.713Z,125.20
2023-03-30T19:37:52.485Z,116.60
2023-03-30T19:40:20.283Z,150.43
2023-03-30T19:42:48.176Z,118.85
2023-03-30T19:45:16.642Z,162.27
2023-03-30T19:47:43.705Z,149.85
2023-03-30T19:50:15.052Z,155.63
2023-03-30T19:52:41.831Z,127.30
2023-03-30T19:55:09.679Z,145.95
2023-03-30T19:57:37.298Z,131.80
2023-03-30T20:00:12.159Z,118.60
2023-03-30T20:02:39.632Z,179.40
2023-03-30T20:05:07.368Z,136.32
2023-03-30T20:07:33.857Z,136.52
2023-03-30T20:10:00.824Z,116.50
2023-03-30T20:12:27.947Z,144.65
2023-03-30T20:14:55.960Z,116.15
2023-03-30T20:17:22.451Z,123.82
2023-03-30T20:19:49.092Z,111.18
2023-03-30T20:22:15.655Z,121.30
2023-03-30T20:24:44.007Z,128.43
2023-03-30T20:27:11.582Z,2.45
2023-03-30T20:29:38.166Z,2.67
2023-03-30T20:32:04.821Z,2.30
2023-03-30T20:34:34.818Z,2.58
2023-03-30T20:37:01.363Z,3.03
2023-03-30T20:39:27.986Z,2.80
2023-03-30T20:41:58.073Z,2.15
2023-03-30T20:44:30.272Z,2.50
2023-03-30T20:46:58.244Z,128.63
2023-03-30T20:49:25.187Z,2.20
2023-03-30T20:51:53.008Z,2.22
2023-03-30T20:54:20.560Z,2.30
2023-03-30T20:56:47.181Z,2.67
2023-03-30T20:59:13.843Z,2.15
2023-03-30T21:01:40.915Z,2.42
2023-03-30T21:04:08.068Z,1.95
2023-03-30T21:06:35.038Z,1.95
2023-03-30T21:09:04.522Z,2.17
2023-03-30T21:11:34.010Z,1.52
2023-03-30T21:14:01.893Z,1.63
2023-03-30T21:16:28.481Z,1.73
2023-03-30T21:18:55.344Z,2.00
2023-03-30T21:21:21.920Z,1.70
2023-03-30T21:23:49.255Z,1.50
2023-03-30T21:26:18.397Z,1.73
2023-03-30T21:28:45.388Z,1.80
2023-03-30T21:31:17.021Z,2.50
2023-03-30T21:33:44.238Z,1.80
2023-03-30T21:36:11.287Z,1.70
2023-03-30T21:38:38.153Z,1.45
2023-03-30T21:41:12.256Z,1.65
2023-03-30T21:43:44.757Z,1.98
2023-03-30T21:46:15.160Z,1.83
2023-03-30T21:48:43.659Z,2.10
2023-03-30T21:51:14.236Z,1.88
2023-03-30T21:53:42.276Z,2.13
2023-03-30T21:56:09.513Z,2.15
2023-03-30T21:58:36.113Z,2.15
2023-03-30T22:01:11.848Z,2.65
2023-03-30T22:03:45.865Z,3.40
2023-03-30T22:06:14.318Z,3.70
2023-03-30T22:08:41.889Z,3.85
2023-03-30T22:11:12.297Z,4.13
2023-03-30T22:13:38.966Z,4.65
2023-03-30T22:16:16.864Z,4.95
2023-03-30T22:18:43.986Z,4.80
2023-03-30T22:21:16.965Z,4.78
2023-03-30T22:23:43.710Z,5.47
2023-03-30T22:26:11.434Z,5.47
2023-03-30T22:28:38.061Z,5.68
2023-03-30T22:31:09.070Z,6.05
2023-03-30T22:33:35.736Z,5.88
2023-03-30T22:36:03.578Z,6.45
2023-03-30T22:38:31.157Z,5.95
2023-03-30T22:41:07.282Z,6.22
2023-03-30T22:43:35.813Z,6.38
2023-03-30T22:46:08.019Z,6.13
2023-03-30T22:48:35.715Z,6.32
2023-03-30T22:51:04.054Z,5.35
2023-03-30T22:53:31.735Z,5.38
2023-03-30T22:55:58.578Z,4.30
2023-03-30T22:58:25.283Z,4.47
2023-03-30T23:00:52.082Z,4.32
2023-03-30T23:03:18.861Z,4.43
2023-03-30T23:05:52.042Z,3.53
2023-03-30T23:08:18.873Z,3.20
2023-03-30T23:10:45.934Z,3.63
2023-03-30T23:13:14.098Z,3.28
2023-03-30T23:15:42.654Z,2.60
2023-03-30T23:18:09.352Z,3.53
2023-03-30T23:20:36.563Z,2.60
2023-03-30T23:23:03.373Z,2.53
2023-03-30T23:25:29.948Z,2.42
2023-03-30T23:27:57.925Z,2.83
2023-03-30T23:30:24.503Z,2.40
2023-03-30T23:32:51.273Z,2.10
2023-03-30T23:35:17.832Z,2.63
2023-03-30T23:37:45.361Z,2.10
2023-03-30T23:40:12.480Z,2.08
2023-03-30T23:42:39.077Z,2.40
2023-03-30T23:45:06.317Z,2.10
2023-03-30T23:47:32.906Z,2.42
2023-03-30T23:49:59.447Z,2.10
2023-03-30T23:52:26.959Z,1.73
2023-03-30T23:54:53.726Z,2.75
2023-03-30T23:57:20.501Z,1.80
2023-03-30T23:59:47.111Z,1.65
